sensor_id;sensor_type;location;lat;lon;timestamp;pressure;altitude;pressure_sealevel;temperature;humidity
60246;BME280;46107;53.356;-1.524;2022-10-03T00:00:22;99979.76;;;11.12;50.24
60246;BME280;46107;53.356;-1.524;2022-10-03T00:03:11;99984.08;;;11.07;51.04
60246;BME280;46107;53.356;-1.524;2022-10-03T00:05:56;99989.56;;;9.94;53.10
60246;BME280;46107;53.356;-1.524;2022-10-03T00:08:44;99995.26;;;11.05;51.12
60246;BME280;46107;53.356;-1.524;2022-10-03T00:11:28;99996.28;;;10.86;51.69
60246;BME280;46107;53.356;-1.524;2022-10-03T00:14:02;99986.72;;;11.38;50.35
60246;BME280;46107;53.356;-1.524;2022-10-03T00:16:40;99992.28;;;11.12;50.97
60246;BME280;46107;53.356;-1.524;2022-10-03T00:19:21;99997.93;;;9.67;54.13
60246;BME280;46107;53.356;-1.524;2022-10-03T00:22:01;99993.75;;;10.43;53.22
60246;BME280;46107;53.356;-1.524;2022-10-03T00:24:45;99992.91;;;10.32;53.06
60246;BME280;46107;53.356;-1.524;2022-10-03T00:27:27;99992.74;;;10.22;53.21
60246;BME280;46107;53.356;-1.524;2022-10-03T00:30:04;99987.90;;;10.52;52.55
60246;BME280;46107;53.356;-1.524;2022-10-03T00:32:51;99985.32;;;11.37;50.98
60246;BME280;46107;53.356;-1.524;2022-10-03T00:35:37;99981.25;;;11.84;49.51
60246;BME280;46107;53.356;-1.524;2022-10-03T00:38:19;99983.77;;;11.39;49.32
60246;BME280;46107;53.356;-1.524;2022-10-03T00:41:12;99990.76;;;11.72;49.16
60246;BME280;46107;53.356;-1.524;2022-10-03T00:48:35;99982.52;;;11.58;49.25
60246;BME280;46107;53.356;-1.524;2022-10-03T00:51:23;99989.18;;;11.10;48.69
60246;BME280;46107;53.356;-1.524;2022-10-03T00:54:00;99991.06;;;12.00;48.10
60246;BME280;46107;53.356;-1.524;2022-10-03T00:56:48;99991.25;;;12.56;47.21
60246;BME280;46107;53.356;-1.524;2022-10-03T00:59:31;99988.03;;;11.26;48.40
60246;BME280;46107;53.356;-1.524;2022-10-03T01:02:23;99984.83;;;11.97;48.13
60246;BME280;46107;53.356;-1.524;2022-10-03T01:05:04;99987.99;;;12.35;46.81
60246;BME280;46107;53.356;-1.524;2022-10-03T01:07:53;99985.01;;;12.94;46.34
60246;BME280;46107;53.356;-1.524;2022-10-03T01:10:31;99985.82;;;12.16;47.71
60246;BME280;46107;53.356;-1.524;2022-10-03T01:13:11;99982.79;;;11.82;48.30
60246;BME280;46107;53.356;-1.524;2022-10-03T01:15:50;99981.22;;;12.34;47.40
60246;BME280;46107;53.356;-1.524;2022-10-03T01:18:27;99980.90;;;11.39;48.87
60246;BME280;46107;53.356;-1.524;2022-10-03T01:21:06;99981.62;;;11.65;49.21
60246;BME280;46107;53.356;-1.524;2022-10-03T01:23:56;99986.92;;;11.25;49.35
60246;BME280;46107;53.356;-1.524;2022-10-03T01:26:50;99986.04;;;11.14;49.37
60246;BME280;46107;53.356;-1.524;2022-10-03T01:29:22;99979.98;;;11.61;48.27
60246;BME280;46107;53.356;-1.524;2022-10-03T01:31:58;99988.65;;;10.09;50.34
60246;BME280;46107;53.356;-1.524;2022-10-03T01:34:33;99991.30;;;11.04;49.82
60246;BME280;46107;53.356;-1.524;2022-10-03T01:37:08;99992.48;;;10.95;49.77
60246;BME280;46107;53.356;-1.524;2022-10-03T01:39:43;99983.80;;;11.56;48.27
60246;BME280;46107;53.356;-1.524;2022-10-03T01:42:21;99982.34;;;11.31;48.89
60246;BME280;46107;53.356;-1.524;2022-10-03T01:45:07;99983.74;;;10.59;50.42
60246;BME280;46107;53.356;-1.524;2022-10-03T01:47:41;99991.09;;;10.76;50.17
60246;BME280;46107;53.356;-1.524;2022-10-03T01:50:19;99994.95;;;11.33;48.99
60246;BME280;46107;53.356;-1.524;2022-10-03T01:52:53;99996.17;;;11.25;49.07
60246;BME280;46107;53.356;-1.524;2022-10-03T01:55:32;99995.72;;;11.13;48.70
60246;BME280;46107;53.356;-1.524;2022-10-03T01:58:06;99996.98;;;11.32;49.33
60246;BME280;46107;53.356;-1.524;2022-10-03T02:00:43;100001.90;;;10.99;49.39
60246;BME280;46107;53.356;-1.524;2022-10-03T02:03:19;100002.43;;;11.60;48.04
60246;BME280;46107;53.356;-1.524;2022-10-03T02:05:56;100004.83;;;10.43;50.16
60246;BME280;46107;53.356;-1.524;2022-10-03T02:08:34;99999.38;;;10.86;50.41
60246;BME280;46107;53.356;-1.524;2022-10-03T02:11:08;100005.38;;;11.07;49.32
60246;BME280;46107;53.356;-1.524;2022-10-03T02:13:43;100001.24;;;10.97;49.33
60246;BME280;46107;53.356;-1.524;2022-10-03T02:16:19;99997.21;;;11.03;49.24
60246;BME280;46107;53.356;-1.524;2022-10-03T02:18:59;99997.56;;;10.57;50.36
60246;BME280;46107;53.356;-1.524;2022-10-03T02:21:30;100004.93;;;11.33;49.78
60246;BME280;46107;53.356;-1.524;2022-10-03T02:24:16;100009.57;;;11.49;48.40
60246;BME280;46107;53.356;-1.524;2022-10-03T02:27:29;100017.67;;;10.75;49.57
60246;BME280;46107;53.356;-1.524;2022-10-03T02:30:10;100011.12;;;10.75;49.92
60246;BME280;46107;53.356;-1.524;2022-10-03T02:33:30;100012.73;;;11.32;48.62
60246;BME280;46107;53.356;-1.524;2022-10-03T02:36:21;100019.96;;;11.03;48.74
60246;BME280;46107;53.356;-1.524;2022-10-03T02:41:36;100007.24;;;12.24;46.99
60246;BME280;46107;53.356;-1.524;2022-10-03T02:44:27;100004.62;;;11.38;48.15
60246;BME280;46107;53.356;-1.524;2022-10-03T02:48:30;100012.53;;;11.35;48.34
60246;BME280;46107;53.356;-1.524;2022-10-03T02:51:47;100015.15;;;11.32;48.55
60246;BME280;46107;53.356;-1.524;2022-10-03T02:54:35;100009.04;;;10.24;51.06
60246;BME280;46107;53.356;-1.524;2022-10-03T02:58:17;100008.70;;;9.64;53.11
60246;BME280;46107;53.356;-1.524;2022-10-03T03:03:29;100002.03;;;10.28;52.39
60246;BME280;46107;53.356;-1.524;2022-10-03T03:07:01;100007.14;;;10.61;51.30
60246;BME280;46107;53.356;-1.524;2022-10-03T03:09:56;100007.23;;;10.92;50.66
60246;BME280;46107;53.356;-1.524;2022-10-03T03:12:43;100006.45;;;10.66;51.58
60246;BME280;46107;53.356;-1.524;2022-10-03T03:17:31;100002.87;;;10.81;52.22
60246;BME280;46107;53.356;-1.524;2022-10-03T03:20:18;100000.86;;;10.51;51.88
60246;BME280;46107;53.356;-1.524;2022-10-03T03:23:00;99990.23;;;11.29;50.97
60246;BME280;46107;53.356;-1.524;2022-10-03T03:25:43;99989.32;;;10.48;52.24
60246;BME280;46107;53.356;-1.524;2022-10-03T03:28:28;99985.20;;;11.75;49.40
60246;BME280;46107;53.356;-1.524;2022-10-03T03:31:06;99983.00;;;11.43;50.00
60246;BME280;46107;53.356;-1.524;2022-10-03T03:33:44;99982.71;;;11.11;50.57
60246;BME280;46107;53.356;-1.524;2022-10-03T03:36:25;99983.11;;;11.59;49.79
60246;BME280;46107;53.356;-1.524;2022-10-03T03:39:04;99991.25;;;10.86;51.13
60246;BME280;46107;53.356;-1.524;2022-10-03T03:41:44;99992.60;;;11.09;51.01
60246;BME280;46107;53.356;-1.524;2022-10-03T03:44:58;99993.65;;;11.04;50.57
60246;BME280;46107;53.356;-1.524;2022-10-03T03:47:42;99986.18;;;11.54;49.95
60246;BME280;46107;53.356;-1.524;2022-10-03T03:50:24;99990.97;;;10.96;50.97
60246;BME280;46107;53.356;-1.524;2022-10-03T03:53:08;99987.88;;;11.42;50.22
60246;BME280;46107;53.356;-1.524;2022-10-03T03:55:55;99981.51;;;11.67;49.02
60246;BME280;46107;53.356;-1.524;2022-10-03T03:58:34;99975.51;;;11.53;48.94
60246;BME280;46107;53.356;-1.524;2022-10-03T04:01:18;99977.29;;;11.16;49.36
60246;BME280;46107;53.356;-1.524;2022-10-03T04:04:04;99987.70;;;10.37;50.69
60246;BME280;46107;53.356;-1.524;2022-10-03T04:06:45;99980.00;;;11.68;49.08
60246;BME280;46107;53.356;-1.524;2022-10-03T04:09:45;99981.60;;;11.65;49.62
60246;BME280;46107;53.356;-1.524;2022-10-03T04:12:29;99981.78;;;11.36;48.74
60246;BME280;46107;53.356;-1.524;2022-10-03T04:15:16;99984.05;;;12.17;47.88
60246;BME280;46107;53.356;-1.524;2022-10-03T04:18:03;99985.42;;;11.66;47.88
60246;BME280;46107;53.356;-1.524;2022-10-03T04:20:54;99982.15;;;11.63;47.75
60246;BME280;46107;53.356;-1.524;2022-10-03T04:23:37;99974.96;;;11.42;47.87
60246;BME280;46107;53.356;-1.524;2022-10-03T04:26:23;99979.90;;;11.57;48.36
60246;BME280;46107;53.356;-1.524;2022-10-03T04:29:50;99984.66;;;11.01;49.17
60246;BME280;46107;53.356;-1.524;2022-10-03T04:32:41;99977.96;;;10.92;48.89
60246;BME280;46107;53.356;-1.524;2022-10-03T04:35:27;99976.85;;;11.28;48.33
60246;BME280;46107;53.356;-1.524;2022-10-03T04:38:07;99972.59;;;11.44;48.22
60246;BME280;46107;53.356;-1.524;2022-10-03T04:40:44;99972.05;;;10.96;48.50
60246;BME280;46107;53.356;-1.524;2022-10-03T04:43:23;99964.49;;;11.92;46.98
60246;BME280;46107;53.356;-1.524;2022-10-03T04:46:04;99956.90;;;11.78;47.32
60246;BME280;46107;53.356;-1.524;2022-10-03T04:48:42;99957.40;;;11.71;47.33
60246;BME280;46107;53.356;-1.524;2022-10-03T04:51:17;99955.35;;;11.72;47.36
60246;BME280;46107;53.356;-1.524;2022-10-03T04:53:56;99958.73;;;11.00;47.82
60246;BME280;46107;53.356;-1.524;2022-10-03T04:56:37;99958.45;;;11.73;46.99
60246;BME280;46107;53.356;-1.524;2022-10-03T04:59:21;99959.80;;;11.67;46.57
60246;BME280;46107;53.356;-1.524;2022-10-03T05:01:56;99964.66;;;11.70;46.48
60246;BME280;46107;53.356;-1.524;2022-10-03T05:04:31;99964.46;;;11.90;46.06
60246;BME280;46107;53.356;-1.524;2022-10-03T05:07:06;99960.89;;;11.57;46.12
60246;BME280;46107;53.356;-1.524;2022-10-03T05:09:44;99958.77;;;11.98;45.99
60246;BME280;46107;53.356;-1.524;2022-10-03T05:12:24;99966.44;;;10.88;46.58
60246;BME280;46107;53.356;-1.524;2022-10-03T05:15:13;99963.16;;;11.15;46.72
60246;BME280;46107;53.356;-1.524;2022-10-03T05:17:50;99951.92;;;11.03;46.03
60246;BME280;46107;53.356;-1.524;2022-10-03T05:20:33;99947.59;;;11.86;46.40
60246;BME280;46107;53.356;-1.524;2022-10-03T05:23:16;99950.90;;;10.96;46.93
60246;BME280;46107;53.356;-1.524;2022-10-03T05:25:55;99951.14;;;11.89;45.78
60246;BME280;46107;53.356;-1.524;2022-10-03T05:28:33;99954.64;;;11.87;46.23
60246;BME280;46107;53.356;-1.524;2022-10-03T05:31:11;99947.36;;;12.07;45.61
60246;BME280;46107;53.356;-1.524;2022-10-03T05:33:46;99945.96;;;12.11;45.47
60246;BME280;46107;53.356;-1.524;2022-10-03T05:36:28;99943.91;;;12.22;45.78
60246;BME280;46107;53.356;-1.524;2022-10-03T05:39:34;99948.06;;;11.92;45.32
60246;BME280;46107;53.356;-1.524;2022-10-03T05:42:25;99956.30;;;12.16;45.60
60246;BME280;46107;53.356;-1.524;2022-10-03T05:45:03;99958.77;;;12.11;45.34
60246;BME280;46107;53.356;-1.524;2022-10-03T05:47:36;99953.44;;;11.82;45.85
60246;BME280;46107;53.356;-1.524;2022-10-03T05:50:35;99949.64;;;11.88;45.77
60246;BME280;46107;53.356;-1.524;2022-10-03T05:53:20;99948.11;;;11.83;46.03
60246;BME280;46107;53.356;-1.524;2022-10-03T05:56:03;99943.85;;;12.34;45.61
60246;BME280;46107;53.356;-1.524;2022-10-03T05:58:51;99944.83;;;12.35;45.63
60246;BME280;46107;53.356;-1.524;2022-10-03T06:01:38;99944.97;;;12.06;45.03
60246;BME280;46107;53.356;-1.524;2022-10-03T06:04:25;99940.87;;;12.35;44.83
60246;BME280;46107;53.356;-1.524;2022-10-03T06:07:13;99943.81;;;12.18;44.71
60246;BME280;46107;53.356;-1.524;2022-10-03T06:10:18;99947.39;;;12.26;44.66
60246;BME280;46107;53.356;-1.524;2022-10-03T06:12:57;99944.06;;;12.43;44.67
60246;BME280;46107;53.356;-1.524;2022-10-03T06:15:44;99943.46;;;12.33;44.51
60246;BME280;46107;53.356;-1.524;2022-10-03T06:18:28;99947.07;;;12.88;44.79
60246;BME280;46107;53.356;-1.524;2022-10-03T06:21:16;99952.09;;;12.52;44.43
60246;BME280;46107;53.356;-1.524;2022-10-03T06:26:18;99948.44;;;12.39;44.32
60246;BME280;46107;53.356;-1.524;2022-10-03T06:30:26;99949.68;;;12.76;43.70
60246;BME280;46107;53.356;-1.524;2022-10-03T06:33:27;99955.27;;;12.60;44.05
60246;BME280;46107;53.356;-1.524;2022-10-03T06:36:19;99950.97;;;12.43;44.69
60246;BME280;46107;53.356;-1.524;2022-10-03T06:42:26;99936.15;;;12.53;43.77
60246;BME280;46107;53.356;-1.524;2022-10-03T06:45:38;99940.60;;;11.75;44.95
60246;BME280;46107;53.356;-1.524;2022-10-03T06:48:25;99940.60;;;12.14;44.58
60246;BME280;46107;53.356;-1.524;2022-10-03T06:51:29;99935.14;;;12.04;45.75
60246;BME280;46107;53.356;-1.524;2022-10-03T06:54:23;99933.65;;;12.34;44.40
60246;BME280;46107;53.356;-1.524;2022-10-03T06:57:17;99924.94;;;12.00;44.82
60246;BME280;46107;53.356;-1.524;2022-10-03T07:00:02;99929.48;;;12.20;44.80
60246;BME280;46107;53.356;-1.524;2022-10-03T07:04:01;99932.94;;;12.55;44.52
60246;BME280;46107;53.356;-1.524;2022-10-03T07:06:48;99932.91;;;11.76;45.05
60246;BME280;46107;53.356;-1.524;2022-10-03T07:09:52;99937.42;;;12.17;44.67
60246;BME280;46107;53.356;-1.524;2022-10-03T07:12:59;99940.01;;;11.29;45.70
60246;BME280;46107;53.356;-1.524;2022-10-03T07:15:47;99944.65;;;11.38;45.97
60246;BME280;46107;53.356;-1.524;2022-10-03T07:21:03;99944.42;;;11.16;47.50
60246;BME280;46107;53.356;-1.524;2022-10-03T07:24:00;99937.49;;;11.62;46.17
60246;BME280;46107;53.356;-1.524;2022-10-03T07:27:26;99937.06;;;11.74;46.89
60246;BME280;46107;53.356;-1.524;2022-10-03T07:30:06;99936.35;;;11.98;48.36
60246;BME280;46107;53.356;-1.524;2022-10-03T07:32:50;99933.36;;;11.72;49.70
60246;BME280;46107;53.356;-1.524;2022-10-03T07:35:41;99938.48;;;11.71;49.88
60246;BME280;46107;53.356;-1.524;2022-10-03T07:41:12;99949.00;;;11.86;50.48
60246;BME280;46107;53.356;-1.524;2022-10-03T07:44:10;99958.52;;;11.45;51.07
60246;BME280;46107;53.356;-1.524;2022-10-03T07:47:10;99959.37;;;11.68;52.41
60246;BME280;46107;53.356;-1.524;2022-10-03T07:49:52;99958.81;;;11.28;52.78
60246;BME280;46107;53.356;-1.524;2022-10-03T07:52:41;99962.02;;;11.73;51.47
60246;BME280;46107;53.356;-1.524;2022-10-03T07:55:26;99964.93;;;12.24;49.95
60246;BME280;46107;53.356;-1.524;2022-10-03T07:58:17;99960.46;;;12.14;51.26
60246;BME280;46107;53.356;-1.524;2022-10-03T08:01:04;99963.35;;;12.40;48.50
60246;BME280;46107;53.356;-1.524;2022-10-03T08:03:58;99961.06;;;12.61;49.14
60246;BME280;46107;53.356;-1.524;2022-10-03T08:06:37;99962.72;;;12.69;49.53
60246;BME280;46107;53.356;-1.524;2022-10-03T08:09:37;99966.19;;;12.78;48.16
60246;BME280;46107;53.356;-1.524;2022-10-03T08:12:29;99966.69;;;12.27;49.69
60246;BME280;46107;53.356;-1.524;2022-10-03T08:15:07;99967.53;;;12.15;50.18
60246;BME280;46107;53.356;-1.524;2022-10-03T08:18:27;99969.69;;;12.07;50.70
60246;BME280;46107;53.356;-1.524;2022-10-03T08:21:00;99968.65;;;12.52;49.36
60246;BME280;46107;53.356;-1.524;2022-10-03T08:24:16;99967.70;;;11.88;50.10
60246;BME280;46107;53.356;-1.524;2022-10-03T08:27:14;99963.30;;;11.63;51.68
60246;BME280;46107;53.356;-1.524;2022-10-03T08:30:22;99965.08;;;12.42;49.89
60246;BME280;46107;53.356;-1.524;2022-10-03T08:33:01;99966.55;;;11.80;50.45
60246;BME280;46107;53.356;-1.524;2022-10-03T08:36:03;99964.99;;;12.19;50.16
60246;BME280;46107;53.356;-1.524;2022-10-03T08:55:44;99952.03;;;12.86;48.31
60246;BME280;46107;53.356;-1.524;2022-10-03T09:31:54;99947.41;;;13.15;45.28
60246;BME280;46107;53.356;-1.524;2022-10-03T09:34:49;99948.71;;;12.47;45.88
60246;BME280;46107;53.356;-1.524;2022-10-03T09:37:33;99943.90;;;13.21;44.61
60246;BME280;46107;53.356;-1.524;2022-10-03T09:41:33;99937.94;;;12.26;47.04
60246;BME280;46107;53.356;-1.524;2022-10-03T09:44:16;99933.62;;;12.01;46.74
60246;BME280;46107;53.356;-1.524;2022-10-03T09:46:55;99936.64;;;11.58;47.30
60246;BME280;46107;53.356;-1.524;2022-10-03T09:49:44;99929.16;;;12.63;45.04
60246;BME280;46107;53.356;-1.524;2022-10-03T09:52:29;99927.86;;;13.03;45.34
60246;BME280;46107;53.356;-1.524;2022-10-03T09:55:29;99930.53;;;12.24;47.31
60246;BME280;46107;53.356;-1.524;2022-10-03T09:58:16;99927.20;;;12.13;47.15
60246;BME280;46107;53.356;-1.524;2022-10-03T10:01:10;99922.24;;;12.51;47.54
60246;BME280;46107;53.356;-1.524;2022-10-03T10:04:38;99916.92;;;12.66;46.98
60246;BME280;46107;53.356;-1.524;2022-10-03T10:07:30;99912.69;;;12.79;47.98
60246;BME280;46107;53.356;-1.524;2022-10-03T10:10:39;99906.88;;;12.67;46.72
60246;BME280;46107;53.356;-1.524;2022-10-03T10:14:16;99908.49;;;12.92;46.99
60246;BME280;46107;53.356;-1.524;2022-10-03T10:18:07;99907.50;;;11.75;49.67
60246;BME280;46107;53.356;-1.524;2022-10-03T10:21:24;99904.18;;;12.37;48.75
60246;BME280;46107;53.356;-1.524;2022-10-03T10:24:05;99904.45;;;11.87;48.56
60246;BME280;46107;53.356;-1.524;2022-10-03T10:27:11;99899.17;;;13.97;44.87
60246;BME280;46107;53.356;-1.524;2022-10-03T10:30:01;99907.20;;;13.75;45.93
60246;BME280;46107;53.356;-1.524;2022-10-03T10:34:15;99907.06;;;14.18;46.54
60246;BME280;46107;53.356;-1.524;2022-10-03T10:38:22;99901.04;;;14.13;45.72
60246;BME280;46107;53.356;-1.524;2022-10-03T10:42:29;99905.85;;;13.93;44.59
60246;BME280;46107;53.356;-1.524;2022-10-03T10:45:42;99901.89;;;13.81;44.52
60246;BME280;46107;53.356;-1.524;2022-10-03T10:48:49;99899.96;;;13.42;44.65
60246;BME280;46107;53.356;-1.524;2022-10-03T10:52:23;99895.00;;;13.43;44.72
60246;BME280;46107;53.356;-1.524;2022-10-03T10:55:38;99891.33;;;13.39;43.94
60246;BME280;46107;53.356;-1.524;2022-10-03T11:00:38;99876.51;;;12.91;45.07
60246;BME280;46107;53.356;-1.524;2022-10-03T11:10:45;99861.25;;;13.78;46.17
60246;BME280;46107;53.356;-1.524;2022-10-03T11:14:03;99851.91;;;12.07;47.25
60246;BME280;46107;53.356;-1.524;2022-10-03T11:17:14;99844.77;;;13.44;44.79
60246;BME280;46107;53.356;-1.524;2022-10-03T11:20:11;99843.20;;;13.87;44.26
60246;BME280;46107;53.356;-1.524;2022-10-03T11:25:40;99846.19;;;13.39;45.77
60246;BME280;46107;53.356;-1.524;2022-10-03T11:28:37;99844.76;;;12.50;45.24
60246;BME280;46107;53.356;-1.524;2022-10-03T11:32:09;99846.43;;;14.01;44.36
60246;BME280;46107;53.356;-1.524;2022-10-03T11:35:06;99847.48;;;13.44;44.75
60246;BME280;46107;53.356;-1.524;2022-10-03T11:37:44;99841.59;;;13.50;44.38
60246;BME280;46107;53.356;-1.524;2022-10-03T11:40:34;99832.16;;;13.34;45.87
60246;BME280;46107;53.356;-1.524;2022-10-03T11:45:24;99824.81;;;14.42;44.33
60246;BME280;46107;53.356;-1.524;2022-10-03T11:48:01;99830.27;;;13.15;43.96
60246;BME280;46107;53.356;-1.524;2022-10-03T11:50:41;99820.24;;;14.19;43.08
60246;BME280;46107;53.356;-1.524;2022-10-03T11:53:18;99808.14;;;13.94;43.61
60246;BME280;46107;53.356;-1.524;2022-10-03T11:55:50;99806.82;;;13.68;44.23
60246;BME280;46107;53.356;-1.524;2022-10-03T11:58:30;99799.47;;;13.89;43.60
60246;BME280;46107;53.356;-1.524;2022-10-03T12:01:09;99785.86;;;12.74;44.06
60246;BME280;46107;53.356;-1.524;2022-10-03T12:03:47;99786.26;;;13.66;43.57
60246;BME280;46107;53.356;-1.524;2022-10-03T12:06:29;99781.22;;;13.22;45.39
60246;BME280;46107;53.356;-1.524;2022-10-03T12:09:11;99786.80;;;13.74;44.38
60246;BME280;46107;53.356;-1.524;2022-10-03T12:11:48;99788.96;;;13.83;43.55
60246;BME280;46107;53.356;-1.524;2022-10-03T12:14:25;99775.06;;;14.91;42.26
60246;BME280;46107;53.356;-1.524;2022-10-03T12:17:04;99774.43;;;13.81;43.83
60246;BME280;46107;53.356;-1.524;2022-10-03T12:19:40;99777.77;;;13.89;44.59
60246;BME280;46107;53.356;-1.524;2022-10-03T12:22:21;99780.75;;;13.40;44.32
60246;BME280;46107;53.356;-1.524;2022-10-03T12:24:56;99769.35;;;13.64;43.20
60246;BME280;46107;53.356;-1.524;2022-10-03T12:27:33;99762.40;;;14.21;43.21
60246;BME280;46107;53.356;-1.524;2022-10-03T12:30:10;99753.67;;;14.55;43.14
60246;BME280;46107;53.356;-1.524;2022-10-03T12:32:46;99754.14;;;14.46;43.43
60246;BME280;46107;53.356;-1.524;2022-10-03T12:35:34;99753.17;;;14.93;43.28
60246;BME280;46107;53.356;-1.524;2022-10-03T12:38:17;99747.26;;;14.86;41.36
60246;BME280;46107;53.356;-1.524;2022-10-03T12:40:57;99745.79;;;14.42;42.36
60246;BME280;46107;53.356;-1.524;2022-10-03T12:43:40;99747.57;;;14.38;43.11
60246;BME280;46107;53.356;-1.524;2022-10-03T12:46:14;99737.35;;;14.99;43.96
60246;BME280;46107;53.356;-1.524;2022-10-03T12:48:51;99730.62;;;14.25;44.96
60246;BME280;46107;53.356;-1.524;2022-10-03T12:51:38;99733.38;;;13.39;45.65
60246;BME280;46107;53.356;-1.524;2022-10-03T12:54:23;99724.07;;;14.36;44.78
60246;BME280;46107;53.356;-1.524;2022-10-03T12:57:15;99722.97;;;14.26;45.32
60246;BME280;46107;53.356;-1.524;2022-10-03T12:59:58;99714.81;;;13.52;46.11
60246;BME280;46107;53.356;-1.524;2022-10-03T13:02:32;99713.57;;;14.20;45.93
60246;BME280;46107;53.356;-1.524;2022-10-03T13:05:31;99712.24;;;14.04;44.72
60246;BME280;46107;53.356;-1.524;2022-10-03T13:08:05;99704.72;;;14.31;44.33
60246;BME280;46107;53.356;-1.524;2022-10-03T13:10:43;99699.90;;;14.30;44.98
60246;BME280;46107;53.356;-1.524;2022-10-03T13:13:23;99694.54;;;13.64;45.88
60246;BME280;46107;53.356;-1.524;2022-10-03T13:16:07;99696.40;;;13.96;45.51
60246;BME280;46107;53.356;-1.524;2022-10-03T13:18:45;99693.50;;;13.61;46.28
60246;BME280;46107;53.356;-1.524;2022-10-03T13:21:18;99692.56;;;13.88;46.40
60246;BME280;46107;53.356;-1.524;2022-10-03T13:23:50;99688.68;;;13.77;46.53
60246;BME280;46107;53.356;-1.524;2022-10-03T13:26:24;99685.12;;;14.78;45.47
60246;BME280;46107;53.356;-1.524;2022-10-03T13:29:33;99676.78;;;14.05;45.71
60246;BME280;46107;53.356;-1.524;2022-10-03T13:32:09;99669.95;;;15.53;44.13
60246;BME280;46107;53.356;-1.524;2022-10-03T13:34:55;99664.00;;;14.49;45.20
60246;BME280;46107;53.356;-1.524;2022-10-03T13:37:29;99666.86;;;15.15;44.46
60246;BME280;46107;53.356;-1.524;2022-10-03T13:40:04;99667.68;;;14.42;45.06
60246;BME280;46107;53.356;-1.524;2022-10-03T13:42:38;99663.19;;;14.88;44.65
60246;BME280;46107;53.356;-1.524;2022-10-03T13:45:13;99659.01;;;14.77;44.57
60246;BME280;46107;53.356;-1.524;2022-10-03T13:47:46;99667.85;;;14.02;46.66
60246;BME280;46107;53.356;-1.524;2022-10-03T13:50:23;99662.56;;;14.98;44.05
60246;BME280;46107;53.356;-1.524;2022-10-03T13:52:57;99654.81;;;14.25;46.58
60246;BME280;46107;53.356;-1.524;2022-10-03T13:55:35;99657.28;;;14.02;46.16
60246;BME280;46107;53.356;-1.524;2022-10-03T13:58:19;99652.38;;;14.39;45.00
60246;BME280;46107;53.356;-1.524;2022-10-03T14:01:10;99660.56;;;14.09;46.14
60246;BME280;46107;53.356;-1.524;2022-10-03T14:03:50;99661.40;;;13.79;47.33
60246;BME280;46107;53.356;-1.524;2022-10-03T14:06:24;99653.02;;;14.66;46.12
60246;BME280;46107;53.356;-1.524;2022-10-03T14:09:10;99645.56;;;14.87;45.26
60246;BME280;46107;53.356;-1.524;2022-10-03T14:11:50;99644.64;;;15.02;45.18
60246;BME280;46107;53.356;-1.524;2022-10-03T14:14:40;99641.07;;;15.20;45.08
60246;BME280;46107;53.356;-1.524;2022-10-03T14:17:14;99630.16;;;14.42;45.64
60246;BME280;46107;53.356;-1.524;2022-10-03T14:19:58;99621.76;;;15.10;44.97
60246;BME280;46107;53.356;-1.524;2022-10-03T14:22:37;99617.83;;;14.08;47.64
60246;BME280;46107;53.356;-1.524;2022-10-03T14:25:19;99611.40;;;14.57;45.93
60246;BME280;46107;53.356;-1.524;2022-10-03T14:27:51;99612.12;;;15.11;46.02
60246;BME280;46107;53.356;-1.524;2022-10-03T14:30:21;99614.79;;;14.09;46.70
60246;BME280;46107;53.356;-1.524;2022-10-03T14:32:58;99614.51;;;14.30;46.18
60246;BME280;46107;53.356;-1.524;2022-10-03T14:35:35;99610.17;;;14.35;46.52
60246;BME280;46107;53.356;-1.524;2022-10-03T14:38:17;99608.19;;;13.89;47.45
60246;BME280;46107;53.356;-1.524;2022-10-03T14:40:50;99602.69;;;14.40;47.07
60246;BME280;46107;53.356;-1.524;2022-10-03T14:43:33;99603.57;;;13.80;47.13
60246;BME280;46107;53.356;-1.524;2022-10-03T14:46:04;99605.64;;;13.88;47.25
60246;BME280;46107;53.356;-1.524;2022-10-03T14:48:39;99601.64;;;14.77;46.32
60246;BME280;46107;53.356;-1.524;2022-10-03T14:51:12;99596.01;;;14.40;45.52
60246;BME280;46107;53.356;-1.524;2022-10-03T14:53:46;99600.07;;;14.79;45.33
60246;BME280;46107;53.356;-1.524;2022-10-03T14:56:19;99598.91;;;14.56;46.46
60246;BME280;46107;53.356;-1.524;2022-10-03T14:58:51;99594.90;;;13.96;47.40
60246;BME280;46107;53.356;-1.524;2022-10-03T15:01:22;99589.03;;;14.24;47.15
60246;BME280;46107;53.356;-1.524;2022-10-03T15:03:59;99588.29;;;14.02;47.39
60246;BME280;46107;53.356;-1.524;2022-10-03T15:06:36;99590.64;;;14.52;47.40
60246;BME280;46107;53.356;-1.524;2022-10-03T15:09:17;99585.03;;;15.25;45.96
60246;BME280;46107;53.356;-1.524;2022-10-03T15:11:47;99588.03;;;14.30;46.68
60246;BME280;46107;53.356;-1.524;2022-10-03T15:14:16;99582.65;;;14.49;46.55
60246;BME280;46107;53.356;-1.524;2022-10-03T15:16:46;99577.09;;;13.80;48.18
60246;BME280;46107;53.356;-1.524;2022-10-03T15:19:19;99574.57;;;14.17;47.33
60246;BME280;46107;53.356;-1.524;2022-10-03T15:21:51;99569.48;;;14.99;46.14
60246;BME280;46107;53.356;-1.524;2022-10-03T15:24:21;99566.73;;;15.34;45.94
60246;BME280;46107;53.356;-1.524;2022-10-03T15:26:53;99569.55;;;14.71;46.76
60246;BME280;46107;53.356;-1.524;2022-10-03T15:29:22;99563.81;;;13.81;48.08
60246;BME280;46107;53.356;-1.524;2022-10-03T15:31:51;99554.38;;;15.14;46.40
60246;BME280;46107;53.356;-1.524;2022-10-03T15:34:23;99554.59;;;14.47;46.88
60246;BME280;46107;53.356;-1.524;2022-10-03T15:36:56;99552.45;;;13.86;47.51
60246;BME280;46107;53.356;-1.524;2022-10-03T15:39:26;99549.47;;;14.54;47.98
60246;BME280;46107;53.356;-1.524;2022-10-03T15:42:00;99541.33;;;15.04;46.23
60246;BME280;46107;53.356;-1.524;2022-10-03T15:44:30;99540.66;;;14.64;46.21
60246;BME280;46107;53.356;-1.524;2022-10-03T15:47:00;99543.92;;;13.98;47.54
60246;BME280;46107;53.356;-1.524;2022-10-03T15:49:32;99542.06;;;13.78;48.72
60246;BME280;46107;53.356;-1.524;2022-10-03T15:52:12;99537.40;;;14.49;46.77
60246;BME280;46107;53.356;-1.524;2022-10-03T15:54:45;99535.07;;;14.81;47.83
60246;BME280;46107;53.356;-1.524;2022-10-03T15:57:20;99527.21;;;14.24;48.35
60246;BME280;46107;53.356;-1.524;2022-10-03T15:59:52;99524.62;;;14.09;48.10